createdAt,value
2022-08-07T00:02:40.455Z,613.30
2022-08-07T00:07:21.296Z,616.00
2022-08-07T00:12:20.568Z,660.60
2022-08-07T00:17:18.884Z,622.10
2022-08-07T00:22:24.514Z,612.60
2022-08-07T00:27:16.175Z,627.00
2022-08-07T00:32:16.486Z,631.40
2022-08-07T00:37:15.807Z,653.40
2022-08-07T00:42:15.145Z,673.60
2022-08-07T00:47:15.800Z,649.90
2022-08-07T00:52:13.690Z,629.20
2022-08-07T00:57:12.828Z,606.30
2022-08-07T01:02:27.861Z,654.30
2022-08-07T01:07:12.155Z,641.80
2022-08-07T01:12:29.779Z,642.40
2022-08-07T01:17:09.571Z,640.20
2022-08-07T01:22:09.029Z,659.80
2022-08-07T01:27:20.009Z,632.10
2022-08-07T01:32:12.545Z,603.10
2022-08-07T01:37:09.666Z,640.20
2022-08-07T01:42:37.146Z,628.10
2022-08-07T01:47:14.360Z,611.10
2022-08-07T01:52:05.029Z,609.20
2022-08-07T01:57:03.399Z,622.50
2022-08-07T02:02:04.394Z,643.00
2022-08-07T02:07:00.960Z,630.50
2022-08-07T02:12:04.916Z,611.80
2022-08-07T02:17:00.538Z,613.50
2022-08-07T02:21:59.801Z,599.60
2022-08-07T02:27:01.445Z,630.50
2022-08-07T02:31:58.407Z,611.70
2022-08-07T02:36:57.685Z,631.20
2022-08-07T02:41:58.000Z,615.90
2022-08-07T02:46:57.180Z,618.20
2022-08-07T02:51:55.317Z,598.50
2022-08-07T02:56:54.602Z,595.00
2022-08-07T03:01:55.116Z,597.20
2022-08-07T03:06:53.184Z,618.70
2022-08-07T03:11:57.792Z,618.30
2022-08-07T03:16:52.478Z,602.50
2022-08-07T03:21:52.863Z,602.90
2022-08-07T03:26:58.122Z,610.40
2022-08-07T03:31:50.054Z,600.60
2022-08-07T03:36:48.731Z,600.60
2022-08-07T03:41:51.035Z,617.90
2022-08-07T03:47:11.215Z,613.20
2022-08-07T03:51:47.904Z,596.70
2022-08-07T03:57:03.294Z,615.10
2022-08-07T04:01:46.062Z,607.80
2022-08-07T04:06:44.917Z,619.50
2022-08-07T04:12:24.849Z,608.40
2022-08-07T04:16:43.034Z,615.80
2022-08-07T04:21:59.433Z,594.40
2022-08-07T04:26:40.780Z,606.00
2022-08-07T04:32:03.099Z,609.00
2022-08-07T04:36:39.203Z,609.00
2022-08-07T04:41:38.503Z,606.50
2022-08-07T04:46:42.809Z,619.70
2022-08-07T04:51:37.911Z,603.10
2022-08-07T04:58:11.837Z,600.20
2022-08-07T05:01:35.313Z,609.60
2022-08-07T05:06:43.770Z,615.60
2022-08-07T05:11:56.914Z,601.70
2022-08-07T05:16:32.870Z,608.60
2022-08-07T05:21:59.164Z,605.80
2022-08-07T05:26:31.229Z,603.90
2022-08-07T05:31:35.028Z,613.90
2022-08-07T05:36:35.072Z,605.50
2022-08-07T05:42:02.374Z,610.60
2022-08-07T05:46:29.412Z,614.00
2022-08-07T05:51:31.531Z,608.00
2022-08-07T05:56:30.199Z,605.60
2022-08-07T06:01:26.681Z,618.50
2022-08-07T06:06:29.456Z,621.70
2022-08-07T06:11:24.007Z,613.30
2022-08-07T06:16:24.308Z,622.20
2022-08-07T06:22:16.074Z,614.20
2022-08-07T06:26:27.614Z,585.40
2022-08-07T06:31:24.312Z,569.20
2022-08-07T06:36:34.990Z,600.60
2022-08-07T06:42:02.440Z,598.90
2022-08-07T06:46:31.471Z,623.40
2022-08-07T06:51:31.015Z,586.60
2022-08-07T06:56:16.790Z,572.10
2022-08-07T07:01:16.159Z,607.10
2022-08-07T07:06:26.443Z,627.40
2022-08-07T07:12:06.764Z,597.00
2022-08-07T07:16:14.993Z,629.30
2022-08-07T07:21:19.629Z,616.30
2022-08-07T07:26:35.471Z,610.90
2022-08-07T07:31:12.246Z,612.30
2022-08-07T07:36:13.171Z,606.20
2022-08-07T07:41:10.652Z,609.00
2022-08-07T07:46:40.089Z,555.80
2022-08-07T07:51:09.152Z,608.10
2022-08-07T07:56:07.418Z,601.30
2022-08-07T08:02:03.421Z,575.50
2022-08-07T08:06:05.896Z,546.90
2022-08-07T08:11:05.200Z,572.40
2022-08-07T08:16:04.513Z,614.60
2022-08-07T08:21:04.630Z,592.30
2022-08-07T08:26:07.000Z,601.10
2022-08-07T08:31:01.131Z,602.90
2022-08-07T08:36:01.475Z,586.50
2022-08-07T08:41:02.956Z,583.10
2022-08-07T08:46:01.165Z,605.60
2022-08-07T08:51:00.077Z,557.30
2022-08-07T08:55:59.474Z,573.40
2022-08-07T09:00:57.617Z,572.10
2022-08-07T09:05:56.868Z,559.60
2022-08-07T09:10:55.984Z,580.70
2022-08-07T09:16:23.532Z,583.40
2022-08-07T09:20:58.377Z,557.50
2022-08-07T09:25:55.692Z,578.00
2022-08-07T09:30:55.066Z,551.40
2022-08-07T09:36:02.675Z,536.00
2022-08-07T09:40:51.476Z,578.90
2022-08-07T09:47:26.194Z,600.70
2022-08-07T09:50:51.311Z,597.00
2022-08-07T09:56:03.289Z,583.20
2022-08-07T10:00:48.440Z,579.90
2022-08-07T10:06:00.120Z,566.40
2022-08-07T10:11:16.764Z,571.20
2022-08-07T10:15:46.083Z,604.20
2022-08-07T10:20:47.400Z,606.90
2022-08-07T10:25:45.642Z,590.90
2022-08-07T10:30:43.795Z,653.10
2022-08-07T10:35:55.347Z,632.80
2022-08-07T10:40:42.313Z,638.00
2022-08-07T10:45:57.823Z,619.90
2022-08-07T10:50:40.810Z,624.50
2022-08-07T10:55:41.121Z,598.50
2022-08-07T11:00:50.216Z,612.60
2022-08-07T11:05:51.063Z,635.00
2022-08-07T11:10:37.316Z,630.10
2022-08-07T11:15:36.932Z,614.60
2022-08-07T11:20:38.253Z,599.60
2022-08-07T11:25:36.169Z,596.90
2022-08-07T11:30:41.563Z,587.50
2022-08-07T11:35:35.770Z,588.60
2022-08-07T11:40:33.954Z,615.70
2022-08-07T11:45:35.819Z,596.90
2022-08-07T11:50:33.470Z,590.80
2022-08-07T11:56:15.706Z,589.60
2022-08-07T12:00:30.840Z,597.30
2022-08-07T12:05:47.420Z,573.80
2022-08-07T12:10:29.273Z,612.20
2022-08-07T12:15:46.070Z,614.80
2022-08-07T12:20:30.099Z,601.60
2022-08-07T12:26:02.823Z,586.80
2022-08-07T12:30:25.029Z,599.60
2022-08-07T12:35:25.183Z,586.30
2022-08-07T12:40:46.490Z,608.10
2022-08-07T12:45:23.589Z,569.90
2022-08-07T12:50:38.486Z,625.70
2022-08-07T12:55:21.015Z,584.20
2022-08-07T13:00:32.836Z,588.90
2022-08-07T13:06:03.481Z,623.40
2022-08-07T13:10:29.150Z,581.20
2022-08-07T13:15:23.645Z,621.50
2022-08-07T13:20:18.226Z,623.20
2022-08-07T13:25:24.160Z,587.90
2022-08-07T13:30:19.615Z,612.30
2022-08-07T13:35:15.757Z,607.70
2022-08-07T13:40:34.884Z,598.40
2022-08-07T13:46:12.072Z,605.20
2022-08-07T13:50:35.819Z,609.50
2022-08-07T13:55:19.203Z,617.60
2022-08-07T14:00:26.047Z,617.00
2022-08-07T14:05:10.065Z,592.40
2022-08-07T14:10:24.380Z,620.10
2022-08-07T14:15:09.369Z,624.70
2022-08-07T14:20:43.149Z,596.80
2022-08-07T14:25:08.207Z,636.90
2022-08-07T14:30:11.679Z,596.40
2022-08-07T14:35:05.219Z,618.20
2022-08-07T14:40:15.803Z,612.40
2022-08-07T14:45:21.724Z,603.80
2022-08-07T14:50:04.718Z,607.20
2022-08-07T14:55:03.023Z,598.00
2022-08-07T15:05:01.654Z,613.60
2022-08-07T15:10:04.864Z,642.80
2022-08-07T15:14:59.041Z,614.90
2022-08-07T15:20:32.530Z,618.60
2022-08-07T15:30:09.145Z,609.10
2022-08-07T15:34:57.174Z,588.30
2022-08-07T15:39:57.701Z,568.50
2022-08-07T15:44:56.095Z,624.20
2022-08-07T15:50:04.905Z,606.90
2022-08-07T15:54:53.544Z,622.90
2022-08-07T15:59:51.733Z,629.00
2022-08-07T16:04:50.972Z,591.60
2022-08-07T16:09:50.240Z,597.00
2022-08-07T16:14:50.526Z,592.00
2022-08-07T16:19:59.496Z,591.60
2022-08-07T16:24:52.565Z,622.90
2022-08-07T16:30:10.235Z,569.10
2022-08-07T16:34:48.655Z,616.10
2022-08-07T16:39:49.247Z,596.30
2022-08-07T16:45:14.690Z,615.40
2022-08-07T16:50:28.197Z,619.40
2022-08-07T16:54:55.268Z,608.40
2022-08-07T16:59:47.043Z,612.10
2022-08-07T17:04:57.806Z,584.20
2022-08-07T17:10:08.198Z,615.40
2022-08-07T17:14:41.468Z,625.70
2022-08-07T17:20:02.107Z,610.10
2022-08-07T17:24:40.065Z,605.20
2022-08-07T17:30:14.988Z,618.40
2022-08-07T17:34:47.052Z,610.50
2022-08-07T17:39:53.158Z,610.30
2022-08-07T17:44:45.421Z,638.70
2022-08-07T17:49:44.901Z,634.40
2022-08-07T17:54:39.866Z,645.30
2022-08-07T17:59:35.863Z,627.50
2022-08-07T18:04:34.432Z,607.80
2022-08-07T18:10:04.914Z,611.50
2022-08-07T18:14:32.379Z,622.30
2022-08-07T18:21:08.958Z,616.10
2022-08-07T18:24:34.696Z,604.60
2022-08-07T18:30:08.388Z,627.40
2022-08-07T18:34:37.420Z,621.40
2022-08-07T18:40:08.133Z,642.80
2022-08-07T18:44:26.557Z,621.20
2022-08-07T18:50:31.270Z,632.90
2022-08-07T18:54:30.940Z,636.60
2022-08-07T18:59:46.765Z,672.10
2022-08-07T19:04:35.826Z,721.20
2022-08-07T19:09:55.715Z,645.00
2022-08-07T19:14:23.046Z,650.10
2022-08-07T19:19:26.730Z,662.80
2022-08-07T19:24:30.770Z,659.10
2022-08-07T19:31:06.249Z,650.00
2022-08-07T19:34:34.398Z,635.20
2022-08-07T19:39:18.142Z,630.80
2022-08-07T19:44:22.029Z,629.00
2022-08-07T19:49:16.694Z,637.20
2022-08-07T19:54:33.986Z,618.00
2022-08-07T19:59:15.115Z,620.40
2022-08-07T20:04:32.046Z,616.20
2022-08-07T20:10:34.166Z,647.90
2022-08-07T20:14:20.537Z,630.00
2022-08-07T20:19:12.110Z,630.50
2022-08-07T20:24:12.276Z,615.70
2022-08-07T20:29:46.958Z,622.00
2022-08-07T20:34:09.667Z,613.30
2022-08-07T20:39:30.648Z,631.50
2022-08-07T20:44:12.617Z,616.00
2022-08-07T20:50:00.114Z,612.20
2022-08-07T20:54:15.143Z,597.20
2022-08-07T20:59:05.595Z,592.90
2022-08-07T21:04:21.973Z,596.60
2022-08-07T21:09:13.641Z,592.40
2022-08-07T21:14:32.836Z,574.30
2022-08-07T21:19:02.339Z,587.90
2022-08-07T21:24:01.657Z,595.40
2022-08-07T21:29:00.844Z,570.00
2022-08-07T21:34:00.154Z,565.60
2022-08-07T21:39:00.480Z,566.10
2022-08-07T21:43:58.570Z,573.50
2022-08-07T21:48:58.923Z,584.80
2022-08-07T21:53:58.191Z,588.10
2022-08-07T21:58:56.438Z,574.30
2022-08-07T22:04:00.497Z,565.00
2022-08-07T22:08:55.923Z,574.00
2022-08-07T22:13:55.614Z,574.40
2022-08-07T22:18:54.363Z,580.00
2022-08-07T22:23:52.570Z,568.00
2022-08-07T22:28:53.412Z,581.00
2022-08-07T22:33:57.004Z,560.50
2022-08-07T22:38:52.156Z,600.60
2022-08-07T22:43:49.336Z,558.60
2022-08-07T22:48:56.069Z,595.50
2022-08-07T22:54:07.301Z,574.30
2022-08-07T22:58:48.040Z,572.90
2022-08-07T23:03:58.680Z,574.90
2022-08-07T23:08:47.867Z,575.60
2022-08-07T23:13:49.132Z,579.40
2022-08-07T23:18:44.703Z,563.60
2022-08-07T23:24:06.746Z,566.30
2022-08-07T23:28:48.778Z,565.40
2022-08-07T23:34:33.551Z,574.60
2022-08-07T23:38:42.674Z,574.90
2022-08-07T23:43:40.717Z,582.20
2022-08-07T23:48:38.846Z,560.50
2022-08-07T23:53:51.330Z,614.30
2022-08-07T23:58:38.209Z,571.50
